OPA Logo
 

ASOS: KRDM
At:2018.07.17 2356 UTC
Wind:320° @ 18-24 KT
Viz: 10 mile(s)
Sky: clear
Temp: 97.0 F (36.1 C)
DewP: 32.0 F (0.0 C)
RH: 10%
Baro: 30.03 in.
ob: KRDM 172356Z 32018G24KT 10SM CLR 36/00 A3003 RMK AO2 PK WND 32028/2336 SLP137 T03610000 10378 20311 57008
Apache-SSL Logo

Valid HTML 4.01!

Central Oregon OPA Chapter

Chapter Officers 2006:

President
Gary E. Miller
109 NW Wilmington Ave.
Bend OR 97701
541 382-8588
gem@rellim.com

Vice President:
Open

Secretary/Treasurer:
Don Wilfong
210 SE Cessna Dr
Bend OR 97702
541 389-1456
dwnw@bendbroadband.com


Web page by: gem@rellim.com